Forestville, Maryland
Current Conditions -  °F | °C
As of 12:58 PM on Friday 31 Oct 2014 (Local Time) from KADW Reporting Station
Overcast Overcast  
Wind Chill: 54°   Ceiling: 5500
Heat Index: 54°   Visibility: 10mi
Dew Point: 36°   Wind: 2mph
Humidity: 50%   Direction: NA
Pressure: 29.93"   Gusts: NA
Location:  38.84°N, 76.89°W
Report Text: KADW 311658Z AUTO VRB02KT 10SM OVC055 12/02 A2993 RMK AO2 SLP143 T01230022 $
Loading
Personal Weather Stations






























Interactive Weather Map
Tropical Storm Tracking
New forecast layout! Learn more

10-Day Weather Forecast

Advertisements
Track Severe Weather on mobile